Accueil
METAR-TAF:

METAR-TAF

Aéroports :

Eastmain, Québec, Canada

latitude: 52-14N, longitude: 078-31W, altitude: 7 m

Observation

Le bulletin a été fait il y a 5 heures et 43 minutes, à 20:00 UTC
Vent 10 kt de nord avec des rafales jusqu'à 16 kt
Température 20°C
Humidité 32%
Pression 1008 hPa
Visibilité: 24.1 km
Nuages épars à une hauteur de 7000 ft

METAR: CZEM 022000Z 01010G16KT 15SM SCT070 20/03 A2977 RMK AC3 OB TAKEN +10 / LAST SFTD OBS/NEXT 031300 UTC SLP081 DENSITY ALT 800FT

Heure: 21:43 (01:43 UTC)


TAF: absent

Observations et prévisions météorologiques de plus de 4000 aéroports (messages METAR et TAF).

Les stations disponibles sont représentées par des disques jaunes et rouges sur la carte.

Passer la souris dessus pour voir le nom de la station.

Cliquer dessus pour voir les observations et prévisions météorologiques.

Pour changer de carte: cliquez sur les boutons verts avec une croix noire pour zoomer, sur le bouton vert avec un tiret pour effectuer un zoom arrière, ou sur les flèches vertes pour les cartes adjacentes.


METAR-TAF: